Terminal Aerodrome Forecast
Issued by NWS Boise, ID

Home | Current Version | Previous Version | Text Only | Print | Product List | Glossary On
Versions: 1 2 3 4 5 6 7 8 9 10 11 12 13 14 15 16 17 18 19 20 21 22 23 24 25 26
000
FTUS45 KBOI 260520
TAFBNO
TAF
KBNO 260520Z 2606/2706 VRB06KT P6SM BKN200
      TEMPO 2606/2607 23025G40KT
     FM262000 20008KT P6SM FEW080 BKN120 PROB30 2620/2624 23020G35KT
      P6SM -TSRA OVC080CB
     FM270000 24014KT P6SM SCT070 BKN100 PROB30 2700/2704 25020G35KT
      P6SM -TSRA OVC070CB=

USA.gov is the U.S. government's official web portal to all federal, state and local government web resources and services.